CheckWX is a tool to help pilots better visualize weather data.  It is not intended as a substitute for an official pre-flight weather briefing.

18:48:56 UTC

KPOU METAR
Hudson Valley Regional Airport
Poughkeepsie, New York, USA
Current

56 mins ago

KPOU 221753Z 35007KT 10SM BKN048 04/M05 A3035 RMK AO2 SLP275 T00441050 10044 21011 50000
Observed
Feb-22 @ 17:53 UTC
Wind
  • 350° at 7 KTS
Visibility
10 SM
Flight Rules
VFR
Cloud Levels
  • Broken at 4,800' AGL
Temperature
C / 39°F
Dewpoint
-5°C / 23°F
Humidity
52%
Altimeter
30.35" Hg
Pressure
1027.5 hPa
Previous

2 hours ago

KPOU 221653Z 34007KT 10SM OVC047 04/M05 A3037 RMK AO2 SLP283 T00441050
Observed
Feb-22 @ 16:53 UTC
Wind
  • 340° at 7 KTS
Visibility
10 SM
Flight Rules
VFR
Cloud Levels
  • Overcast at 4,700' AGL
Temperature
C / 39°F
Dewpoint
-5°C / 23°F
Humidity
52%
Altimeter
30.37" Hg
Pressure
1028.3 hPa
Previous

3 hours ago

KPOU 221553Z 03008KT 10SM BKN045 03/M05 A3037 RMK AO2 SLP282 T00281050
Observed
Feb-22 @ 15:53 UTC
Wind
  • 030° at 8 KTS
Visibility
10 SM
Flight Rules
VFR
Cloud Levels
  • Broken at 4,500' AGL
Temperature
C / 37°F
Dewpoint
-5°C / 23°F
Humidity
56%
Altimeter
30.37" Hg
Pressure
1028.2 hPa